sensor_id;sensor_type;location;lat;lon;timestamp;P1;durP1;ratioP1;P2;durP2;ratioP2
30062;SDS011;16889;67.864;24.990;2022-08-21T00:01:47;13.27;;;6.90;;
30062;SDS011;16889;67.864;24.990;2022-08-21T00:06:34;13.52;;;7.28;;
30062;SDS011;16889;67.864;24.990;2022-08-21T00:11:20;25.00;;;6.93;;
30062;SDS011;16889;67.864;24.990;2022-08-21T00:16:06;13.45;;;6.72;;
30062;SDS011;16889;67.864;24.990;2022-08-21T00:20:52;21.63;;;6.80;;
30062;SDS011;16889;67.864;24.990;2022-08-21T00:25:39;24.63;;;6.50;;
30062;SDS011;16889;67.864;24.990;2022-08-21T00:30:26;21.67;;;7.03;;
30062;SDS011;16889;67.864;24.990;2022-08-21T00:35:14;28.92;;;7.00;;
30062;SDS011;16889;67.864;24.990;2022-08-21T00:40:02;23.45;;;7.00;;
30062;SDS011;16889;67.864;24.990;2022-08-21T00:44:49;19.52;;;6.70;;
30062;SDS011;16889;67.864;24.990;2022-08-21T00:49:35;21.50;;;6.50;;
30062;SDS011;16889;67.864;24.990;2022-08-21T00:54:22;19.77;;;6.68;;
30062;SDS011;16889;67.864;24.990;2022-08-21T00:59:11;20.15;;;6.20;;
30062;SDS011;16889;67.864;24.990;2022-08-21T01:03:58;23.73;;;6.43;;
30062;SDS011;16889;67.864;24.990;2022-08-21T01:08:44;29.55;;;6.88;;
30062;SDS011;16889;67.864;24.990;2022-08-21T01:13:33;20.70;;;6.27;;
30062;SDS011;16889;67.864;24.990;2022-08-21T01:18:22;24.63;;;6.63;;
30062;SDS011;16889;67.864;24.990;2022-08-21T01:23:08;23.83;;;7.05;;
30062;SDS011;16889;67.864;24.990;2022-08-21T01:27:55;30.17;;;7.00;;
30062;SDS011;16889;67.864;24.990;2022-08-21T01:32:42;25.23;;;6.63;;
30062;SDS011;16889;67.864;24.990;2022-08-21T01:37:28;20.90;;;6.90;;
30062;SDS011;16889;67.864;24.990;2022-08-21T01:42:14;21.02;;;6.95;;
30062;SDS011;16889;67.864;24.990;2022-08-21T01:47:02;27.55;;;6.60;;
30062;SDS011;16889;67.864;24.990;2022-08-21T01:51:50;24.98;;;6.22;;
30062;SDS011;16889;67.864;24.990;2022-08-21T01:56:41;30.42;;;6.85;;
30062;SDS011;16889;67.864;24.990;2022-08-21T02:01:30;27.85;;;6.60;;
30062;SDS011;16889;67.864;24.990;2022-08-21T02:06:16;25.40;;;6.53;;
30062;SDS011;16889;67.864;24.990;2022-08-21T02:11:02;22.48;;;6.68;;
30062;SDS011;16889;67.864;24.990;2022-08-21T02:15:48;24.52;;;6.50;;
30062;SDS011;16889;67.864;24.990;2022-08-21T02:20:38;24.05;;;6.70;;
30062;SDS011;16889;67.864;24.990;2022-08-21T02:25:27;25.65;;;7.05;;
30062;SDS011;16889;67.864;24.990;2022-08-21T02:30:18;26.02;;;6.88;;
30062;SDS011;16889;67.864;24.990;2022-08-21T02:35:07;26.60;;;6.78;;
30062;SDS011;16889;67.864;24.990;2022-08-21T02:39:54;28.15;;;7.10;;
30062;SDS011;16889;67.864;24.990;2022-08-21T02:44:40;28.65;;;6.68;;
30062;SDS011;16889;67.864;24.990;2022-08-21T02:49:26;34.17;;;7.00;;
30062;SDS011;16889;67.864;24.990;2022-08-21T02:54:12;33.67;;;5.85;;
30062;SDS011;16889;67.864;24.990;2022-08-21T02:58:58;27.63;;;6.75;;
30062;SDS011;16889;67.864;24.990;2022-08-21T03:03:45;25.95;;;6.50;;
30062;SDS011;16889;67.864;24.990;2022-08-21T03:08:35;22.23;;;6.90;;
30062;SDS011;16889;67.864;24.990;2022-08-21T03:13:22;22.13;;;7.28;;
30062;SDS011;16889;67.864;24.990;2022-08-21T03:18:09;21.08;;;6.38;;
30062;SDS011;16889;67.864;24.990;2022-08-21T03:22:56;24.52;;;7.15;;
30062;SDS011;16889;67.864;24.990;2022-08-21T03:27:42;27.48;;;6.32;;
30062;SDS011;16889;67.864;24.990;2022-08-21T03:32:28;18.98;;;6.00;;
30062;SDS011;16889;67.864;24.990;2022-08-21T03:37:15;23.10;;;6.85;;
30062;SDS011;16889;67.864;24.990;2022-08-21T03:42:02;19.77;;;5.83;;
30062;SDS011;16889;67.864;24.990;2022-08-21T03:46:50;28.60;;;7.23;;
30062;SDS011;16889;67.864;24.990;2022-08-21T03:51:36;21.15;;;6.05;;
30062;SDS011;16889;67.864;24.990;2022-08-21T03:56:22;17.38;;;6.55;;
30062;SDS011;16889;67.864;24.990;2022-08-21T04:01:08;17.73;;;6.63;;
30062;SDS011;16889;67.864;24.990;2022-08-21T04:05:54;22.90;;;7.10;;
30062;SDS011;16889;67.864;24.990;2022-08-21T04:10:41;24.13;;;6.90;;
30062;SDS011;16889;67.864;24.990;2022-08-21T04:20:15;26.75;;;7.85;;
30062;SDS011;16889;67.864;24.990;2022-08-21T04:25:03;31.50;;;9.30;;
30062;SDS011;16889;67.864;24.990;2022-08-21T04:29:49;28.05;;;9.07;;
30062;SDS011;16889;67.864;24.990;2022-08-21T04:34:35;26.92;;;9.32;;
30062;SDS011;16889;67.864;24.990;2022-08-21T04:39:21;34.78;;;9.70;;
30062;SDS011;16889;67.864;24.990;2022-08-21T04:44:07;35.17;;;10.10;;
30062;SDS011;16889;67.864;24.990;2022-08-21T04:48:53;38.00;;;11.05;;
30062;SDS011;16889;67.864;24.990;2022-08-21T04:53:41;30.83;;;10.55;;
30062;SDS011;16889;67.864;24.990;2022-08-21T04:58:34;22.30;;;10.05;;
30062;SDS011;16889;67.864;24.990;2022-08-21T05:03:22;30.15;;;10.50;;
30062;SDS011;16889;67.864;24.990;2022-08-21T05:08:09;26.83;;;10.02;;
30062;SDS011;16889;67.864;24.990;2022-08-21T05:13:00;23.58;;;9.15;;
30062;SDS011;16889;67.864;24.990;2022-08-21T05:17:46;33.90;;;10.07;;
30062;SDS011;16889;67.864;24.990;2022-08-21T05:22:32;28.30;;;10.43;;
30062;SDS011;16889;67.864;24.990;2022-08-21T05:27:19;30.15;;;10.45;;
30062;SDS011;16889;67.864;24.990;2022-08-21T05:32:11;22.35;;;10.18;;
30062;SDS011;16889;67.864;24.990;2022-08-21T05:36:59;31.70;;;10.00;;
30062;SDS011;16889;67.864;24.990;2022-08-21T05:41:45;27.10;;;11.13;;
30062;SDS011;16889;67.864;24.990;2022-08-21T05:46:32;32.67;;;11.35;;
30062;SDS011;16889;67.864;24.990;2022-08-21T05:51:18;23.85;;;11.50;;
30062;SDS011;16889;67.864;24.990;2022-08-21T05:56:04;21.92;;;11.02;;
30062;SDS011;16889;67.864;24.990;2022-08-21T06:00:51;28.60;;;11.40;;
30062;SDS011;16889;67.864;24.990;2022-08-21T06:05:37;30.23;;;11.23;;
30062;SDS011;16889;67.864;24.990;2022-08-21T06:10:23;27.20;;;11.10;;
30062;SDS011;16889;67.864;24.990;2022-08-21T06:15:10;31.08;;;11.43;;
30062;SDS011;16889;67.864;24.990;2022-08-21T06:19:56;30.95;;;11.35;;
30062;SDS011;16889;67.864;24.990;2022-08-21T06:24:42;38.42;;;11.05;;
30062;SDS011;16889;67.864;24.990;2022-08-21T06:29:28;34.00;;;10.40;;
30062;SDS011;16889;67.864;24.990;2022-08-21T06:34:14;26.35;;;10.30;;
30062;SDS011;16889;67.864;24.990;2022-08-21T06:39:01;34.75;;;10.70;;
30062;SDS011;16889;67.864;24.990;2022-08-21T06:43:48;32.60;;;10.35;;
30062;SDS011;16889;67.864;24.990;2022-08-21T06:48:34;27.35;;;9.77;;
30062;SDS011;16889;67.864;24.990;2022-08-21T06:53:20;25.75;;;9.85;;
30062;SDS011;16889;67.864;24.990;2022-08-21T06:58:06;31.25;;;11.20;;
30062;SDS011;16889;67.864;24.990;2022-08-21T07:02:53;26.70;;;11.05;;
30062;SDS011;16889;67.864;24.990;2022-08-21T07:07:39;30.40;;;11.93;;
30062;SDS011;16889;67.864;24.990;2022-08-21T07:12:25;30.50;;;12.80;;
30062;SDS011;16889;67.864;24.990;2022-08-21T07:17:11;23.80;;;13.02;;
30062;SDS011;16889;67.864;24.990;2022-08-21T07:21:58;39.58;;;12.75;;
30062;SDS011;16889;67.864;24.990;2022-08-21T07:26:47;32.78;;;12.88;;
30062;SDS011;16889;67.864;24.990;2022-08-21T07:31:34;37.97;;;13.37;;
30062;SDS011;16889;67.864;24.990;2022-08-21T07:36:20;33.17;;;12.20;;
30062;SDS011;16889;67.864;24.990;2022-08-21T07:41:07;32.22;;;12.00;;
30062;SDS011;16889;67.864;24.990;2022-08-21T07:45:59;22.92;;;12.40;;
30062;SDS011;16889;67.864;24.990;2022-08-21T07:50:45;31.00;;;13.77;;
30062;SDS011;16889;67.864;24.990;2022-08-21T07:55:32;35.75;;;14.30;;
30062;SDS011;16889;67.864;24.990;2022-08-21T08:00:21;36.63;;;14.63;;
30062;SDS011;16889;67.864;24.990;2022-08-21T08:05:12;44.15;;;14.93;;
30062;SDS011;16889;67.864;24.990;2022-08-21T08:09:59;33.83;;;14.38;;
30062;SDS011;16889;67.864;24.990;2022-08-21T08:14:45;31.02;;;14.38;;
30062;SDS011;16889;67.864;24.990;2022-08-21T08:19:31;25.23;;;15.38;;
30062;SDS011;16889;67.864;24.990;2022-08-21T08:24:17;39.55;;;15.70;;
30062;SDS011;16889;67.864;24.990;2022-08-21T08:29:04;29.80;;;15.27;;
30062;SDS011;16889;67.864;24.990;2022-08-21T08:33:50;39.90;;;17.45;;
30062;SDS011;16889;67.864;24.990;2022-08-21T08:38:36;42.15;;;15.85;;
30062;SDS011;16889;67.864;24.990;2022-08-21T08:43:22;34.17;;;15.98;;
30062;SDS011;16889;67.864;24.990;2022-08-21T08:48:10;35.72;;;16.90;;
30062;SDS011;16889;67.864;24.990;2022-08-21T08:53:02;31.27;;;17.50;;
30062;SDS011;16889;67.864;24.990;2022-08-21T08:57:51;34.50;;;17.80;;
30062;SDS011;16889;67.864;24.990;2022-08-21T09:02:41;45.00;;;18.02;;
30062;SDS011;16889;67.864;24.990;2022-08-21T09:07:40;42.95;;;19.17;;
30062;SDS011;16889;67.864;24.990;2022-08-21T09:12:52;36.17;;;18.45;;
30062;SDS011;16889;67.864;24.990;2022-08-21T09:28:07;32.10;;;15.68;;
30062;SDS011;16889;67.864;24.990;2022-08-21T09:32:57;32.97;;;14.68;;
30062;SDS011;16889;67.864;24.990;2022-08-21T09:37:59;24.90;;;14.53;;
30062;SDS011;16889;67.864;24.990;2022-08-21T09:42:55;39.85;;;14.52;;
30062;SDS011;16889;67.864;24.990;2022-08-21T09:47:44;25.05;;;13.30;;
30062;SDS011;16889;67.864;24.990;2022-08-21T09:52:30;26.98;;;13.75;;
30062;SDS011;16889;67.864;24.990;2022-08-21T09:57:23;19.95;;;12.57;;
30062;SDS011;16889;67.864;24.990;2022-08-21T10:02:28;23.65;;;13.20;;
30062;SDS011;16889;67.864;24.990;2022-08-21T10:07:19;35.25;;;14.85;;
30062;SDS011;16889;67.864;24.990;2022-08-21T10:12:15;32.70;;;14.85;;
30062;SDS011;16889;67.864;24.990;2022-08-21T10:17:41;34.50;;;14.23;;
30062;SDS011;16889;67.864;24.990;2022-08-21T10:23:39;28.00;;;14.23;;
30062;SDS011;16889;67.864;24.990;2022-08-21T10:33:07;32.08;;;14.65;;
30062;SDS011;16889;67.864;24.990;2022-08-21T10:58:37;23.85;;;13.52;;
30062;SDS011;16889;67.864;24.990;2022-08-21T11:03:33;24.45;;;13.27;;
30062;SDS011;16889;67.864;24.990;2022-08-21T11:08:30;21.85;;;11.90;;
30062;SDS011;16889;67.864;24.990;2022-08-21T11:18:36;21.38;;;11.32;;
30062;SDS011;16889;67.864;24.990;2022-08-21T11:23:33;26.10;;;11.18;;
30062;SDS011;16889;67.864;24.990;2022-08-21T11:28:28;16.65;;;10.13;;
30062;SDS011;16889;67.864;24.990;2022-08-21T11:38:20;22.88;;;10.27;;
30062;SDS011;16889;67.864;24.990;2022-08-21T11:48:34;23.90;;;10.90;;
30062;SDS011;16889;67.864;24.990;2022-08-21T11:53:28;29.80;;;11.43;;
30062;SDS011;16889;67.864;24.990;2022-08-21T11:58:23;21.38;;;10.88;;
30062;SDS011;16889;67.864;24.990;2022-08-21T12:03:15;26.23;;;10.82;;
30062;SDS011;16889;67.864;24.990;2022-08-21T12:13:22;21.65;;;9.98;;
30062;SDS011;16889;67.864;24.990;2022-08-21T12:18:22;24.42;;;11.02;;
30062;SDS011;16889;67.864;24.990;2022-08-21T12:23:24;25.33;;;9.90;;
30062;SDS011;16889;67.864;24.990;2022-08-21T12:28:13;26.38;;;10.02;;
30062;SDS011;16889;67.864;24.990;2022-08-21T12:33:18;29.98;;;10.05;;
30062;SDS011;16889;67.864;24.990;2022-08-21T12:38:29;26.48;;;9.70;;
30062;SDS011;16889;67.864;24.990;2022-08-21T12:43:20;25.33;;;9.35;;
30062;SDS011;16889;67.864;24.990;2022-08-21T12:53:22;26.15;;;9.27;;
30062;SDS011;16889;67.864;24.990;2022-08-21T12:58:29;30.10;;;9.10;;
30062;SDS011;16889;67.864;24.990;2022-08-21T13:03:16;24.85;;;10.07;;
30062;SDS011;16889;67.864;24.990;2022-08-21T13:08:03;32.85;;;9.85;;
30062;SDS011;16889;67.864;24.990;2022-08-21T13:12:55;26.42;;;10.00;;
30062;SDS011;16889;67.864;24.990;2022-08-21T13:17:46;28.38;;;9.10;;
30062;SDS011;16889;67.864;24.990;2022-08-21T13:22:39;24.20;;;9.30;;
30062;SDS011;16889;67.864;24.990;2022-08-21T13:27:30;25.45;;;9.68;;
30062;SDS011;16889;67.864;24.990;2022-08-21T13:32:18;27.48;;;8.63;;
30062;SDS011;16889;67.864;24.990;2022-08-21T13:37:08;24.55;;;8.38;;
30062;SDS011;16889;67.864;24.990;2022-08-21T13:41:57;29.02;;;8.63;;
30062;SDS011;16889;67.864;24.990;2022-08-21T13:46:46;29.55;;;8.85;;
30062;SDS011;16889;67.864;24.990;2022-08-21T13:51:33;22.70;;;8.48;;
30062;SDS011;16889;67.864;24.990;2022-08-21T13:56:22;24.97;;;8.77;;
30062;SDS011;16889;67.864;24.990;2022-08-21T14:01:21;27.05;;;9.27;;
30062;SDS011;16889;67.864;24.990;2022-08-21T14:06:20;30.02;;;9.88;;
30062;SDS011;16889;67.864;24.990;2022-08-21T14:11:12;23.15;;;8.95;;
30062;SDS011;16889;67.864;24.990;2022-08-21T14:15:59;34.95;;;10.25;;
30062;SDS011;16889;67.864;24.990;2022-08-21T14:20:47;33.83;;;9.63;;
30062;SDS011;16889;67.864;24.990;2022-08-21T14:25:41;30.48;;;9.07;;
30062;SDS011;16889;67.864;24.990;2022-08-21T14:30:33;22.08;;;8.75;;
30062;SDS011;16889;67.864;24.990;2022-08-21T14:35:21;22.05;;;8.95;;
30062;SDS011;16889;67.864;24.990;2022-08-21T14:40:07;30.90;;;9.85;;
30062;SDS011;16889;67.864;24.990;2022-08-21T14:44:55;24.37;;;8.70;;
30062;SDS011;16889;67.864;24.990;2022-08-21T14:49:45;30.27;;;9.50;;
30062;SDS011;16889;67.864;24.990;2022-08-21T14:54:31;21.70;;;9.18;;
30062;SDS011;16889;67.864;24.990;2022-08-21T14:59:17;33.78;;;9.70;;
30062;SDS011;16889;67.864;24.990;2022-08-21T15:04:05;29.45;;;10.27;;
30062;SDS011;16889;67.864;24.990;2022-08-21T15:08:51;30.55;;;9.60;;
30062;SDS011;16889;67.864;24.990;2022-08-21T15:13:37;29.92;;;9.77;;
30062;SDS011;16889;67.864;24.990;2022-08-21T15:18:24;33.80;;;10.13;;
30062;SDS011;16889;67.864;24.990;2022-08-21T15:23:11;19.90;;;9.30;;
30062;SDS011;16889;67.864;24.990;2022-08-21T15:27:58;27.23;;;10.65;;
30062;SDS011;16889;67.864;24.990;2022-08-21T15:32:45;30.85;;;10.77;;
30062;SDS011;16889;67.864;24.990;2022-08-21T15:37:31;37.38;;;12.23;;
30062;SDS011;16889;67.864;24.990;2022-08-21T15:42:17;34.08;;;12.52;;
30062;SDS011;16889;67.864;24.990;2022-08-21T15:47:04;25.42;;;11.65;;
30062;SDS011;16889;67.864;24.990;2022-08-21T15:51:50;23.15;;;11.90;;
30062;SDS011;16889;67.864;24.990;2022-08-21T15:56:37;19.95;;;10.68;;
30062;SDS011;16889;67.864;24.990;2022-08-21T16:01:25;16.70;;;9.70;;
30062;SDS011;16889;67.864;24.990;2022-08-21T16:06:12;19.80;;;9.77;;
30062;SDS011;16889;67.864;24.990;2022-08-21T16:10:58;24.73;;;10.88;;
30062;SDS011;16889;67.864;24.990;2022-08-21T16:15:45;25.97;;;11.00;;
30062;SDS011;16889;67.864;24.990;2022-08-21T16:20:31;16.42;;;10.05;;
30062;SDS011;16889;67.864;24.990;2022-08-21T16:25:17;27.10;;;10.38;;
30062;SDS011;16889;67.864;24.990;2022-08-21T16:30:04;27.10;;;11.60;;
30062;SDS011;16889;67.864;24.990;2022-08-21T16:34:51;26.57;;;11.43;;
30062;SDS011;16889;67.864;24.990;2022-08-21T16:39:37;35.00;;;11.35;;
30062;SDS011;16889;67.864;24.990;2022-08-21T16:44:23;33.95;;;11.35;;
30062;SDS011;16889;67.864;24.990;2022-08-21T16:49:11;34.00;;;12.32;;
30062;SDS011;16889;67.864;24.990;2022-08-21T16:53:57;26.88;;;12.30;;
30062;SDS011;16889;67.864;24.990;2022-08-21T16:58:45;25.30;;;13.50;;
30062;SDS011;16889;67.864;24.990;2022-08-21T17:03:36;30.08;;;13.32;;
30062;SDS011;16889;67.864;24.990;2022-08-21T17:08:25;25.00;;;13.13;;
30062;SDS011;16889;67.864;24.990;2022-08-21T17:13:11;28.45;;;14.15;;
30062;SDS011;16889;67.864;24.990;2022-08-21T17:17:57;32.35;;;13.73;;
30062;SDS011;16889;67.864;24.990;2022-08-21T17:22:44;37.47;;;16.10;;
30062;SDS011;16889;67.864;24.990;2022-08-21T17:27:30;40.05;;;15.77;;
30062;SDS011;16889;67.864;24.990;2022-08-21T17:32:17;27.35;;;17.50;;
30062;SDS011;16889;67.864;24.990;2022-08-21T17:37:03;34.25;;;16.95;;
30062;SDS011;16889;67.864;24.990;2022-08-21T17:41:50;30.33;;;14.90;;
30062;SDS011;16889;67.864;24.990;2022-08-21T17:46:37;30.55;;;14.85;;
30062;SDS011;16889;67.864;24.990;2022-08-21T17:51:23;28.95;;;13.77;;
30062;SDS011;16889;67.864;24.990;2022-08-21T17:56:10;27.23;;;12.73;;
30062;SDS011;16889;67.864;24.990;2022-08-21T18:00:58;29.40;;;13.75;;
30062;SDS011;16889;67.864;24.990;2022-08-21T18:05:48;37.60;;;13.52;;
30062;SDS011;16889;67.864;24.990;2022-08-21T18:10:38;29.05;;;14.15;;
30062;SDS011;16889;67.864;24.990;2022-08-21T18:15:28;24.60;;;13.90;;
30062;SDS011;16889;67.864;24.990;2022-08-21T18:20:16;24.70;;;13.20;;
30062;SDS011;16889;67.864;24.990;2022-08-21T18:25:04;31.15;;;12.35;;
30062;SDS011;16889;67.864;24.990;2022-08-21T18:29:52;29.63;;;11.73;;
30062;SDS011;16889;67.864;24.990;2022-08-21T18:34:40;28.98;;;11.50;;
30062;SDS011;16889;67.864;24.990;2022-08-21T18:39:27;30.02;;;11.25;;
30062;SDS011;16889;67.864;24.990;2022-08-21T18:44:14;22.08;;;10.98;;
30062;SDS011;16889;67.864;24.990;2022-08-21T18:53:48;24.05;;;9.27;;
30062;SDS011;16889;67.864;24.990;2022-08-21T18:58:35;25.58;;;8.95;;
30062;SDS011;16889;67.864;24.990;2022-08-21T19:03:22;26.83;;;9.43;;
30062;SDS011;16889;67.864;24.990;2022-08-21T19:08:13;22.05;;;8.75;;
30062;SDS011;16889;67.864;24.990;2022-08-21T19:13:02;15.32;;;7.55;;
30062;SDS011;16889;67.864;24.990;2022-08-21T19:17:49;22.17;;;7.60;;
30062;SDS011;16889;67.864;24.990;2022-08-21T19:22:37;28.17;;;8.63;;
30062;SDS011;16889;67.864;24.990;2022-08-21T19:27:23;27.00;;;7.72;;
30062;SDS011;16889;67.864;24.990;2022-08-21T19:32:10;33.92;;;7.13;;
30062;SDS011;16889;67.864;24.990;2022-08-21T19:36:56;31.40;;;7.78;;
30062;SDS011;16889;67.864;24.990;2022-08-21T19:41:44;25.98;;;7.32;;
30062;SDS011;16889;67.864;24.990;2022-08-21T19:46:34;23.35;;;7.40;;
30062;SDS011;16889;67.864;24.990;2022-08-21T19:51:21;23.73;;;7.60;;
30062;SDS011;16889;67.864;24.990;2022-08-21T19:56:09;20.38;;;7.68;;
30062;SDS011;16889;67.864;24.990;2022-08-21T20:00:59;24.13;;;8.18;;
30062;SDS011;16889;67.864;24.990;2022-08-21T20:05:46;25.70;;;7.13;;
30062;SDS011;16889;67.864;24.990;2022-08-21T20:10:32;19.33;;;7.45;;
30062;SDS011;16889;67.864;24.990;2022-08-21T20:15:18;27.42;;;8.18;;
30062;SDS011;16889;67.864;24.990;2022-08-21T20:20:06;28.67;;;8.15;;
30062;SDS011;16889;67.864;24.990;2022-08-21T20:24:53;33.97;;;9.00;;
30062;SDS011;16889;67.864;24.990;2022-08-21T20:29:39;27.45;;;9.30;;
30062;SDS011;16889;67.864;24.990;2022-08-21T20:34:25;24.63;;;8.80;;
30062;SDS011;16889;67.864;24.990;2022-08-21T20:39:11;31.25;;;9.73;;
30062;SDS011;16889;67.864;24.990;2022-08-21T20:43:58;28.75;;;10.18;;
30062;SDS011;16889;67.864;24.990;2022-08-21T20:48:45;28.27;;;10.53;;
30062;SDS011;16889;67.864;24.990;2022-08-21T20:53:34;32.13;;;10.48;;
30062;SDS011;16889;67.864;24.990;2022-08-21T20:58:40;21.02;;;10.65;;
30062;SDS011;16889;67.864;24.990;2022-08-21T21:03:57;39.63;;;11.33;;
30062;SDS011;16889;67.864;24.990;2022-08-21T21:09:06;33.47;;;10.77;;
30062;SDS011;16889;67.864;24.990;2022-08-21T21:14:03;33.15;;;11.85;;
30062;SDS011;16889;67.864;24.990;2022-08-21T21:18:57;33.85;;;12.75;;
30062;SDS011;16889;67.864;24.990;2022-08-21T21:23:49;28.38;;;12.70;;
30062;SDS011;16889;67.864;24.990;2022-08-21T21:28:43;37.85;;;12.30;;
30062;SDS011;16889;67.864;24.990;2022-08-21T21:33:42;36.00;;;12.65;;
30062;SDS011;16889;67.864;24.990;2022-08-21T21:38:36;30.58;;;12.90;;
30062;SDS011;16889;67.864;24.990;2022-08-21T21:43:51;27.45;;;13.13;;
30062;SDS011;16889;67.864;24.990;2022-08-21T21:53:55;27.33;;;11.52;;
30062;SDS011;16889;67.864;24.990;2022-08-21T21:59:02;29.40;;;11.77;;
30062;SDS011;16889;67.864;24.990;2022-08-21T22:04:45;31.55;;;12.02;;
30062;SDS011;16889;67.864;24.990;2022-08-21T22:09:45;35.63;;;12.80;;
30062;SDS011;16889;67.864;24.990;2022-08-21T22:14:40;36.75;;;12.85;;
30062;SDS011;16889;67.864;24.990;2022-08-21T22:19:28;32.80;;;11.98;;
30062;SDS011;16889;67.864;24.990;2022-08-21T22:24:22;34.85;;;10.63;;
30062;SDS011;16889;67.864;24.990;2022-08-21T22:29:13;28.95;;;10.70;;
30062;SDS011;16889;67.864;24.990;2022-08-21T22:38:53;35.90;;;10.15;;
30062;SDS011;16889;67.864;24.990;2022-08-21T22:49:10;38.10;;;10.55;;
30062;SDS011;16889;67.864;24.990;2022-08-21T22:54:07;41.03;;;11.05;;
30062;SDS011;16889;67.864;24.990;2022-08-21T22:58:58;34.33;;;9.73;;
30062;SDS011;16889;67.864;24.990;2022-08-21T23:03:50;31.38;;;9.90;;
30062;SDS011;16889;67.864;24.990;2022-08-21T23:08:41;35.10;;;10.68;;
30062;SDS011;16889;67.864;24.990;2022-08-21T23:13:29;35.63;;;11.05;;
30062;SDS011;16889;67.864;24.990;2022-08-21T23:18:40;39.25;;;10.75;;
30062;SDS011;16889;67.864;24.990;2022-08-21T23:23:42;39.17;;;11.30;;
30062;SDS011;16889;67.864;24.990;2022-08-21T23:44:27;34.72;;;10.50;;
30062;SDS011;16889;67.864;24.990;2022-08-21T23:54:28;35.70;;;9.85;;
